Time;durP1;ratioP1;P1;durP2;ratioP2;P2;SDS_P1;SDS_P2;PMS_P1;PMS_P2;Temp;Humidity;BMP_temperature;BMP_pressure;BME280_temperature;BME280_humidity;BME280_pressure;Samples;Min_cycle;Max_cycle;Signal;HPM_P1;HPM_P2
2023/06/04 00:00:10;;;;;;;0.30;0.30;;;;;;;11.60;61.16;100983.03;5085920;28;20021;-69
2023/06/04 00:02:35;;;;;;;0.30;0.30;;;;;;;11.61;61.15;100992.59;5085646;28;20052;-71
2023/06/04 00:05:01;;;;;;;0.30;0.30;;;;;;;11.57;61.45;100991.72;5067558;28;20029;-70
2023/06/04 00:07:26;;;;;;;0.30;0.30;;;;;;;11.55;61.31;100985.66;5067627;28;20025;-70
2023/06/04 00:09:53;;;;;;;0.30;0.30;;;;;;;11.48;61.46;100982.25;5085906;28;20025;-70
2023/06/04 00:12:18;;;;;;;0.30;0.30;;;;;;;11.47;61.55;100987.44;5085687;28;20020;-71
2023/06/04 00:14:44;;;;;;;0.30;0.30;;;;;;;11.40;61.62;100984.00;5067653;28;20086;-71
2023/06/04 00:17:10;;;;;;;0.30;0.30;;;;;;;11.36;61.51;100977.94;5085541;28;20028;-70
2023/06/04 00:19:38;;;;;;;0.30;0.30;;;;;;;11.35;60.99;100980.53;5067371;28;20020;-71
2023/06/04 00:22:03;;;;;;;0.43;0.43;;;;;;;11.36;61.21;100983.13;5067795;28;20027;-71
2023/06/04 00:24:29;;;;;;;0.40;0.40;;;;;;;11.36;61.30;100984.84;5085540;28;20449;-67
2023/06/04 00:26:54;;;;;;;0.30;0.30;;;;;;;11.36;61.22;100982.25;5085697;28;20020;-70
2023/06/04 00:29:19;;;;;;;0.30;0.30;;;;;;;11.32;61.04;100978.81;5085574;28;20032;-69
2023/06/04 00:31:45;;;;;;;0.30;0.30;;;;;;;11.35;61.15;100983.13;5085521;28;20016;-69
2023/06/04 00:34:10;;;;;;;0.30;0.30;;;;;;;11.33;61.11;100974.47;5084233;28;20047;-68
2023/06/04 00:36:36;;;;;;;0.30;0.30;;;;;;;11.33;61.06;100977.94;5085334;28;20130;-69
2023/06/04 00:39:01;;;;;;;0.30;0.30;;;;;;;11.33;60.99;100980.53;5085327;28;20021;-69
2023/06/04 00:41:27;;;;;;;0.30;0.30;;;;;;;11.31;60.84;100981.41;5085158;28;20024;-69
2023/06/04 00:44:01;;;;;;;0.30;0.30;;;;;;;11.31;60.86;100981.41;5067272;28;20049;-68
2023/06/04 00:46:28;;;;;;;0.30;0.30;;;;;;;11.28;60.91;100979.66;5067246;28;20035;-68
2023/06/04 00:48:54;;;;;;;0.30;0.30;;;;;;;11.28;60.66;100977.06;5085146;28;20469;-68
2023/06/04 00:51:20;;;;;;;0.50;0.50;;;;;;;11.26;60.97;100979.66;5084961;28;20029;-69
2023/06/04 00:53:46;;;;;;;0.40;0.40;;;;;;;11.23;61.64;100971.03;5085057;28;20063;-69
2023/06/04 00:56:12;;;;;;;0.40;0.40;;;;;;;11.19;62.34;100971.91;5066787;28;20020;-69
2023/06/04 00:58:39;;;;;;;0.30;0.30;;;;;;;11.22;63.03;100969.28;5085035;28;20047;-68
2023/06/04 01:01:10;;;;;;;0.30;0.30;;;;;;;11.21;63.12;100975.38;5084937;28;20028;-68
2023/06/04 01:03:41;;;;;;;0.40;0.40;;;;;;;11.20;63.76;100971.88;5084894;28;20123;-69
2023/06/04 01:06:24;;;;;;;0.30;0.30;;;;;;;11.21;64.02;100962.38;5084542;28;20029;-68
2023/06/04 01:08:54;;;;;;;0.40;0.40;;;;;;;11.24;64.53;100964.97;5066639;28;20066;-69
2023/06/04 01:11:40;;;;;;;0.45;0.45;;;;;;;11.15;65.35;100950.25;5084408;28;20145;-69
2023/06/04 01:14:11;;;;;;;0.40;0.40;;;;;;;11.26;65.77;100973.63;5066588;28;20024;-69
2023/06/04 01:17:01;;;;;;;0.30;0.30;;;;;;;11.24;66.16;100971.03;5084438;28;20051;-70
2023/06/04 01:19:42;;;;;;;2.58;2.35;;;;;;;11.25;66.57;100974.47;5084603;28;20048;-69
2023/06/04 01:22:36;;;;;;;0.45;0.45;;;;;;;11.21;66.97;100971.03;5084864;28;20021;-68
2023/06/04 01:25:12;;;;;;;0.40;0.40;;;;;;;11.22;67.36;100975.38;5033306;28;20042;-69
2023/06/04 01:27:40;;;;;;;0.32;0.32;;;;;;;11.23;67.51;100971.88;5084396;28;20050;-69
2023/06/04 01:30:08;;;;;;;0.40;0.40;;;;;;;11.24;67.62;100977.97;5084246;28;20499;-69
2023/06/04 01:32:33;;;;;;;0.30;0.30;;;;;;;11.18;67.77;100972.78;5066477;28;20032;-69
2023/06/04 01:34:59;;;;;;;0.30;0.30;;;;;;;11.25;67.93;100970.16;5084161;28;20106;-69
2023/06/04 01:37:26;;;;;;;0.30;0.30;;;;;;;11.24;68.19;100977.97;5084148;28;20033;-69
2023/06/04 01:39:51;;;;;;;0.30;0.30;;;;;;;11.23;68.22;100971.03;5066145;28;20025;-68
2023/06/04 01:42:17;;;;;;;0.95;0.95;;;;;;;11.15;68.38;100960.63;5083865;28;20102;-68
2023/06/04 01:44:42;;;;;;;0.30;0.30;;;;;;;11.22;68.23;100971.88;5083742;28;20108;-68
2023/06/04 01:47:07;;;;;;;0.38;0.38;;;;;;;11.13;67.98;100963.22;5084398;28;20025;-69
2023/06/04 01:49:33;;;;;;;0.52;0.52;;;;;;;11.14;67.96;100971.91;5083918;28;20036;-68
2023/06/04 01:51:58;;;;;;;0.30;0.30;;;;;;;11.15;68.25;100969.31;5083763;28;20031;-68
2023/06/04 01:54:24;;;;;;;0.38;0.38;;;;;;;11.16;68.32;100967.59;5083951;28;20085;-68
2023/06/04 01:56:49;;;;;;;0.38;0.38;;;;;;;11.11;68.41;100970.19;5083769;28;20020;-69
2023/06/04 01:59:16;;;;;;;0.30;0.30;;;;;;;11.12;68.36;100979.69;5084001;28;20092;-69
2023/06/04 02:01:41;;;;;;;0.30;0.30;;;;;;;11.11;68.54;100971.91;5083931;28;20041;-68
2023/06/04 02:04:07;;;;;;;0.30;0.30;;;;;;;11.00;68.53;100964.13;5084020;28;20076;-69
2023/06/04 02:06:32;;;;;;;0.30;0.30;;;;;;;10.98;68.68;100965.84;5083720;28;20020;-70
2023/06/04 02:08:58;;;;;;;0.30;0.30;;;;;;;11.00;68.69;100977.13;5065809;28;20025;-69
2023/06/04 02:11:23;;;;;;;0.30;0.30;;;;;;;10.95;68.37;100971.94;5083638;28;20078;-69
2023/06/04 02:13:48;;;;;;;0.30;0.30;;;;;;;10.93;68.12;100973.66;5083953;28;20035;-68
2023/06/04 02:16:14;;;;;;;0.30;0.30;;;;;;;10.89;67.92;100965.00;5083605;28;20031;-69
2023/06/04 02:18:40;;;;;;;0.30;0.30;;;;;;;10.83;67.72;100964.16;5083795;28;20084;-69
2023/06/04 02:21:05;;;;;;;0.30;0.30;;;;;;;10.81;67.25;100969.34;5065488;28;20021;-68
2023/06/04 02:23:30;;;;;;;0.30;0.30;;;;;;;10.69;66.79;100965.00;5083960;28;20029;-70
2023/06/04 02:25:56;;;;;;;0.30;0.30;;;;;;;10.61;66.56;100975.41;5083549;28;20036;-69
2023/06/04 02:28:21;;;;;;;0.40;0.40;;;;;;;10.53;66.32;100979.72;5083679;28;20024;-68
2023/06/04 02:30:47;;;;;;;0.30;0.30;;;;;;;10.47;66.20;100977.09;5083550;28;20028;-68
2023/06/04 02:33:13;;;;;;;0.32;0.32;;;;;;;10.43;66.18;100986.63;5083573;28;20025;-69
2023/06/04 02:35:38;;;;;;;0.30;0.30;;;;;;;10.34;65.73;100990.03;5065392;28;20112;-68
2023/06/04 02:38:04;;;;;;;0.30;0.30;;;;;;;10.31;65.84;100994.34;5083728;28;20423;-69
2023/06/04 02:40:29;;;;;;;0.30;0.30;;;;;;;10.23;65.79;100981.38;5083456;28;20096;-68
2023/06/04 02:42:56;;;;;;;0.40;0.40;;;;;;;10.23;65.86;100994.34;5083725;28;20021;-69
2023/06/04 02:45:22;;;;;;;0.30;0.30;;;;;;;10.16;65.65;101001.22;5083636;28;20036;-69
2023/06/04 02:47:47;;;;;;;0.40;0.40;;;;;;;10.11;65.51;101011.59;5083554;28;20021;-69
2023/06/04 02:50:15;;;;;;;0.30;0.30;;;;;;;10.03;65.42;101001.19;5083377;28;20046;-68
2023/06/04 02:52:41;;;;;;;0.38;0.38;;;;;;;10.13;65.46;101020.25;5065513;28;20376;-68
2023/06/04 02:55:08;;;;;;;0.30;0.30;;;;;;;10.10;65.53;101015.06;5083368;28;20035;-68
2023/06/04 02:57:34;;;;;;;1.35;1.25;;;;;;;10.09;65.42;101017.66;5085122;28;20024;-70
2023/06/04 03:00:01;;;;;;;0.30;0.30;;;;;;;10.05;65.35;101014.16;5087269;28;20054;-68
2023/06/04 03:02:27;;;;;;;0.32;0.32;;;;;;;10.09;65.11;101017.66;5087078;28;20047;-69
2023/06/04 03:04:54;;;;;;;0.40;0.40;;;;;;;10.11;65.14;101028.91;5068982;28;20499;-69
2023/06/04 03:07:22;;;;;;;0.32;0.32;;;;;;;10.13;65.59;101035.84;5087101;28;20457;-69
2023/06/04 03:09:49;;;;;;;0.30;0.30;;;;;;;10.16;66.80;101028.06;5086979;28;20036;-69
2023/06/04 03:12:14;;;;;;;0.30;0.30;;;;;;;10.26;67.97;101015.97;5069045;28;20090;-69
2023/06/04 03:14:40;;;;;;;0.40;0.40;;;;;;;10.48;68.20;101023.84;5087010;28;20025;-68
2023/06/04 03:17:10;;;;;;;0.30;0.30;;;;;;;10.68;68.48;101033.41;5087037;28;20024;-69
2023/06/04 03:19:41;;;;;;;0.40;0.40;;;;;;;10.84;68.42;101028.22;5087309;28;20027;-68
2023/06/04 03:22:08;;;;;;;0.30;0.30;;;;;;;11.04;67.56;101028.22;5086741;28;20025;-69
2023/06/04 03:24:38;;;;;;;0.30;0.30;;;;;;;11.25;67.25;101035.13;5086862;28;20121;-70
2023/06/04 03:27:04;;;;;;;0.40;0.40;;;;;;;11.39;67.09;101035.09;5086915;28;20048;-69
2023/06/04 03:29:31;;;;;;;0.30;0.30;;;;;;;11.49;66.81;101040.28;5086745;28;20024;-69
2023/06/04 03:31:57;;;;;;;0.30;0.30;;;;;;;11.58;66.70;101042.88;5068545;28;20043;-69
2023/06/04 03:34:26;;;;;;;0.40;0.40;;;;;;;11.65;66.30;101042.00;5086766;28;20469;-69
2023/06/04 03:36:52;;;;;;;0.35;0.35;;;;;;;11.72;66.39;101039.38;5086598;28;20108;-69
2023/06/04 03:39:17;;;;;;;0.40;0.40;;;;;;;11.84;66.19;101041.94;5086563;28;20017;-69
2023/06/04 03:41:43;;;;;;;0.32;0.32;;;;;;;12.08;66.50;101040.13;5086365;28;20084;-69
2023/06/04 03:44:09;;;;;;;0.30;0.30;;;;;;;12.39;66.33;101042.59;5086365;28;20111;-69
2023/06/04 03:46:35;;;;;;;0.30;0.30;;;;;;;12.73;65.77;101038.03;5086440;28;20028;-70
2023/06/04 03:49:01;;;;;;;0.30;0.30;;;;;;;12.98;65.67;101035.22;5086385;28;20020;-69
2023/06/04 03:51:26;;;;;;;0.30;0.30;;;;;;;13.26;65.60;101034.97;5086209;28;20084;-69
2023/06/04 03:53:51;;;;;;;0.30;0.30;;;;;;;13.56;65.67;101032.13;5086204;28;20024;-70
2023/06/04 03:56:17;;;;;;;0.30;0.30;;;;;;;13.94;65.55;101038.66;5068144;28;20070;-69
2023/06/04 03:58:43;;;;;;;0.30;0.30;;;;;;;14.21;65.51;101036.56;5086273;28;20025;-69
2023/06/04 04:01:10;;;;;;;0.20;0.20;;;;;;;14.60;65.25;101050.81;5085891;28;20020;-68
2023/06/04 04:03:36;;;;;;;0.30;0.30;;;;;;;14.87;64.09;101043.47;5086087;28;20557;-69
2023/06/04 04:06:02;;;;;;;0.30;0.30;;;;;;;15.11;62.85;101042.19;5086302;28;20024;-69
2023/06/04 04:08:31;;;;;;;0.30;0.30;;;;;;;15.42;63.78;101045.13;5085925;28;20074;-70
2023/06/04 04:10:59;;;;;;;0.30;0.30;;;;;;;15.74;63.90;101054.13;5086166;28;20028;-69
2023/06/04 04:13:24;;;;;;;0.20;0.20;;;;;;;16.01;63.55;101044.03;5085969;28;20025;-70
2023/06/04 04:15:53;;;;;;;0.30;0.30;;;;;;;16.30;63.09;101045.16;5085722;28;20028;-70
2023/06/04 04:18:20;;;;;;;0.30;0.30;;;;;;;16.60;62.82;101050.59;5086014;28;20409;-69
2023/06/04 04:20:46;;;;;;;0.20;0.20;;;;;;;17.04;62.72;101040.81;5085707;28;20028;-69
2023/06/04 04:23:12;;;;;;;0.30;0.30;;;;;;;17.42;61.32;101045.97;5085767;28;20021;-70
2023/06/04 04:25:38;;;;;;;0.20;0.20;;;;;;;17.83;60.91;101048.34;5085573;28;20028;-69
2023/06/04 04:28:06;;;;;;;0.20;0.20;;;;;;;18.22;59.23;101052.53;5085610;28;20027;-70
2023/06/04 04:30:34;;;;;;;0.20;0.20;;;;;;;18.85;60.08;101042.69;5085458;28;20465;-68
2023/06/04 04:33:00;;;;;;;0.20;0.20;;;;;;;19.28;60.18;101038.63;5067552;28;20088;-69
2023/06/04 04:35:26;;;;;;;0.30;0.30;;;;;;;19.78;59.99;101044.75;5085520;28;20028;-70
2023/06/04 04:37:51;;;;;;;0.20;0.20;;;;;;;20.23;58.73;101041.34;5085561;28;20024;-70
2023/06/04 04:40:17;;;;;;;0.20;0.20;;;;;;;20.45;58.24;101038.72;5085494;28;20020;-70
2023/06/04 04:42:42;;;;;;;0.20;0.20;;;;;;;20.86;57.31;101043.25;5085597;28;20021;-70
2023/06/04 04:45:08;;;;;;;0.10;0.10;;;;;;;21.31;57.16;101043.13;5085291;28;20032;-69
2023/06/04 04:47:34;;;;;;;0.10;0.10;;;;;;;21.64;57.09;101039.09;5085201;28;20099;-70
2023/06/04 04:49:59;;;;;;;0.20;0.20;;;;;;;21.99;56.32;101044.56;5085130;28;20123;-70
2023/06/04 04:52:25;;;;;;;0.20;0.20;;;;;;;22.39;56.09;101039.19;5085362;28;20025;-70
2023/06/04 04:54:52;;;;;;;0.20;0.20;;;;;;;22.84;55.63;101028.22;5084968;28;20059;-70
2023/06/04 04:57:17;;;;;;;0.10;0.10;;;;;;;23.16;55.13;101038.09;5085176;28;20023;-70
2023/06/04 04:59:42;;;;;;;0.20;0.20;;;;;;;23.32;50.50;101040.78;5085110;28;20024;-70
2023/06/04 05:02:08;;;;;;;0.20;0.20;;;;;;;23.64;48.60;101042.69;5084803;28;20040;-71
2023/06/04 05:04:33;;;;;;;0.28;0.28;;;;;;;24.29;50.61;101038.31;5084922;28;20412;-70
2023/06/04 05:06:58;;;;;;;0.10;0.10;;;;;;;24.64;48.37;101047.84;5084731;28;20027;-70
2023/06/04 05:09:24;;;;;;;0.10;0.10;;;;;;;24.99;46.65;101039.63;5084887;28;20025;-70
2023/06/04 05:11:49;;;;;;;0.10;0.10;;;;;;;25.65;47.58;101038.38;5084761;28;20073;-70
2023/06/04 05:14:15;;;;;;;1.27;1.17;;;;;;;25.99;46.22;101041.53;5084722;28;20080;-70
2023/06/04 05:16:41;;;;;;;0.10;0.10;;;;;;;26.23;43.57;101043.56;5084677;28;20020;-70
2023/06/04 05:19:06;;;;;;;0.10;0.10;;;;;;;26.78;44.80;101044.50;5084667;28;20052;-69
2023/06/04 05:21:31;;;;;;;0.10;0.10;;;;;;;27.00;44.51;101051.06;5084065;28;20025;-70
2023/06/04 05:23:58;;;;;;;0.10;0.10;;;;;;;27.31;44.11;101054.31;5084534;28;20055;-70
2023/06/04 05:26:28;;;;;;;0.10;0.10;;;;;;;27.33;41.96;101050.56;5084025;28;20016;-70
2023/06/04 05:28:53;;;;;;;1.25;1.08;;;;;;;27.04;41.95;101041.94;5084515;28;20542;-70
2023/06/04 05:31:19;;;;;;;0.10;0.10;;;;;;;26.97;41.44;101042.31;5084484;28;20024;-70
2023/06/04 05:33:44;;;;;;;0.20;0.20;;;;;;;27.26;41.45;101046.63;5084448;28;20435;-70
2023/06/04 05:36:10;;;;;;;0.10;0.10;;;;;;;27.50;41.33;101043.19;5084294;28;20389;-71
2023/06/04 05:38:35;;;;;;;0.10;0.10;;;;;;;27.51;40.36;101044.91;5084343;28;20056;-70
2023/06/04 05:41:01;;;;;;;0.10;0.10;;;;;;;27.32;38.65;101048.00;5066396;28;20052;-69
2023/06/04 05:43:27;;;;;;;0.10;0.10;;;;;;;26.76;38.04;101057.09;5064312;28;20071;-70
2023/06/04 05:45:53;;;;;;;0.10;0.10;;;;;;;25.98;37.87;101050.50;5064051;28;20071;-70
2023/06/04 05:48:18;;;;;;;1.13;1.05;;;;;;;25.45;38.68;101053.72;5064125;28;20036;-70
2023/06/04 05:50:44;;;;;;;0.10;0.10;;;;;;;24.96;38.50;101062.84;5063946;28;20116;-70
2023/06/04 05:53:10;;;;;;;0.30;0.30;;;;;;;24.10;38.97;101070.28;5064346;28;20044;-69
2023/06/04 05:55:35;;;;;;;0.10;0.10;;;;;;;23.66;39.21;101077.06;5064100;28;20086;-68
2023/06/04 05:58:01;;;;;;;0.10;0.10;;;;;;;22.79;39.89;101072.56;5063954;28;20524;-68
2023/06/04 06:00:27;;;;;;;0.10;0.10;;;;;;;22.48;41.15;101072.25;5064012;28;20094;-68
2023/06/04 06:02:53;;;;;;;0.20;0.20;;;;;;;22.36;41.40;101070.19;5063521;28;20045;-69
2023/06/04 06:05:19;;;;;;;0.20;0.20;;;;;;;22.19;41.82;101068.38;5063675;28;20101;-70
2023/06/04 06:07:45;;;;;;;0.10;0.10;;;;;;;22.21;42.62;101071.78;5064033;28;20013;-71
2023/06/04 06:10:11;;;;;;;0.20;0.20;;;;;;;22.49;42.25;101071.31;5063773;28;20021;-70
2023/06/04 06:12:37;;;;;;;0.10;0.10;;;;;;;22.40;41.77;101085.84;5063915;28;20070;-70
2023/06/04 06:15:03;;;;;;;0.10;0.10;;;;;;;22.08;42.07;101082.09;5063908;28;20028;-69
2023/06/04 06:17:29;;;;;;;1.23;1.10;;;;;;;21.99;43.24;101081.59;5064060;28;20578;-70
2023/06/04 06:19:55;;;;;;;0.52;0.52;;;;;;;22.40;43.65;101077.91;5063687;28;20017;-69
2023/06/04 06:22:21;;;;;;;0.40;0.40;;;;;;;23.05;42.79;101093.38;5063904;28;20025;-69
2023/06/04 06:24:50;;;;;;;0.40;0.40;;;;;;;23.74;42.48;101088.97;5063652;28;20023;-70
2023/06/04 06:27:15;;;;;;;0.90;0.90;;;;;;;24.33;40.12;101081.44;5063826;28;20040;-70
2023/06/04 06:29:41;;;;;;;0.20;0.20;;;;;;;24.20;39.17;101090.06;5063818;28;20025;-69
2023/06/04 06:32:07;;;;;;;0.10;0.10;;;;;;;23.84;39.40;101088.47;5066487;28;20025;-71
2023/06/04 06:34:33;;;;;;;0.20;0.20;;;;;;;23.33;40.03;101089.31;5067799;28;20108;-70
2023/06/04 06:36:58;;;;;;;0.20;0.20;;;;;;;22.86;40.93;101083.72;5067539;28;20031;-70
2023/06/04 06:39:23;;;;;;;0.10;0.10;;;;;;;22.73;40.86;101092.25;5067812;28;20051;-71
2023/06/04 06:41:49;;;;;;;0.20;0.20;;;;;;;22.85;41.02;101105.81;5067564;28;20048;-70
2023/06/04 06:44:15;;;;;;;0.20;0.20;;;;;;;22.43;40.98;101098.06;5067694;28;20025;-69
2023/06/04 06:46:40;;;;;;;0.10;0.10;;;;;;;22.32;41.63;101100.38;5067512;28;20025;-69
2023/06/04 06:49:06;;;;;;;0.30;0.30;;;;;;;22.58;41.82;101103.56;5067481;28;20043;-71
2023/06/04 06:51:31;;;;;;;0.10;0.10;;;;;;;22.88;41.58;101100.38;5067425;28;20307;-69
2023/06/04 06:53:56;;;;;;;0.20;0.20;;;;;;;22.86;41.24;101097.78;5067452;28;20049;-70
2023/06/04 06:56:22;;;;;;;0.35;0.35;;;;;;;23.15;41.69;101092.84;5067675;28;20052;-69
2023/06/04 06:58:47;;;;;;;0.22;0.22;;;;;;;23.67;41.27;101084.94;5049505;28;20462;-69
2023/06/04 07:01:13;;;;;;;0.20;0.20;;;;;;;23.68;39.76;101101.69;5067245;28;20495;-69
2023/06/04 07:03:39;;;;;;;0.20;0.20;;;;;;;23.16;39.08;101101.66;5067303;28;20060;-70
2023/06/04 07:06:08;;;;;;;0.17;0.17;;;;;;;22.76;40.26;101115.91;5067261;28;20036;-68
2023/06/04 07:08:33;;;;;;;0.10;0.10;;;;;;;22.66;40.94;101109.38;5067334;28;20036;-65
2023/06/04 07:11:01;;;;;;;0.65;0.65;;;;;;;22.37;40.53;101111.56;5066984;28;20028;-64
2023/06/04 07:13:28;;;;;;;0.20;0.20;;;;;;;22.16;40.42;101103.72;5067104;28;20025;-65
2023/06/04 07:15:54;;;;;;;0.20;0.20;;;;;;;22.03;41.00;101117.50;5048944;28;20025;-66
2023/06/04 07:18:19;;;;;;;0.20;0.20;;;;;;;22.10;40.85;101120.75;5066749;28;20025;-66
2023/06/04 07:20:45;;;;;;;0.30;0.30;;;;;;;21.76;40.82;101117.78;5066843;28;20017;-64
2023/06/04 07:23:10;;;;;;;0.20;0.20;;;;;;;21.88;41.25;101118.22;5066643;28;20461;-61
2023/06/04 07:25:36;;;;;;;0.20;0.20;;;;;;;22.06;41.29;101116.50;5066501;28;20024;-63
2023/06/04 07:28:03;;;;;;;0.20;0.20;;;;;;;22.42;40.19;101112.22;5048553;28;20025;-64
2023/06/04 07:30:30;;;;;;;0.30;0.30;;;;;;;22.40;39.69;101122.00;5066585;28;20017;-63
2023/06/04 07:32:56;;;;;;;5.65;2.47;;;;;;;22.53;39.95;101114.34;5066657;28;20082;-63
2023/06/04 07:35:21;;;;;;;0.20;0.20;;;;;;;22.74;39.83;101131.03;5066195;28;20036;-79
2023/06/04 07:37:48;;;;;;;0.20;0.20;;;;;;;23.03;39.31;101119.94;5066870;28;20095;-82
2023/06/04 07:40:14;;;;;;;0.30;0.30;;;;;;;23.17;39.24;101121.88;5048580;28;20443;-76
2023/06/04 07:42:41;;;;;;;0.85;0.85;;;;;;;23.15;37.85;101121.97;5047790;28;20024;-69
2023/06/04 07:45:07;;;;;;;0.20;0.20;;;;;;;23.30;38.86;101123.91;5066495;28;20029;-63
2023/06/04 07:47:33;;;;;;;0.20;0.20;;;;;;;23.66;38.22;101112.34;5066316;28;20059;-75
2023/06/04 07:49:59;;;;;;;0.10;0.10;;;;;;;23.79;36.88;101127.66;5048123;28;20021;-64
2023/06/04 07:52:25;;;;;;;0.30;0.30;;;;;;;23.39;36.72;101120.81;5048281;28;20029;-73
2023/06/04 07:54:51;;;;;;;0.20;0.20;;;;;;;23.12;37.28;101130.06;5065118;28;20028;-70
2023/06/04 07:57:16;;;;;;;0.20;0.20;;;;;;;23.05;36.08;101126.03;5066243;28;20025;-75
2023/06/04 07:59:42;;;;;;;0.30;0.30;;;;;;;22.98;36.05;101124.59;5066062;28;20381;-67
2023/06/04 08:02:07;;;;;;;0.20;0.20;;;;;;;22.87;35.62;101128.66;5065883;28;20055;-66
2023/06/04 08:04:33;;;;;;;0.20;0.20;;;;;;;23.00;35.63;101136.81;5065961;28;20072;-65
2023/06/04 08:06:58;;;;;;;0.20;0.20;;;;;;;23.05;34.30;101127.81;5047698;28;20020;-67
2023/06/04 08:09:24;;;;;;;0.20;0.20;;;;;;;23.08;34.28;101125.88;5066134;28;20028;-67
2023/06/04 08:11:49;;;;;;;0.20;0.20;;;;;;;23.53;33.13;101133.38;5065539;28;20103;-66
2023/06/04 08:14:15;;;;;;;0.40;0.40;;;;;;;23.67;33.32;101116.75;5065797;28;20021;-69
2023/06/04 08:16:40;;;;;;;0.20;0.20;;;;;;;23.76;32.27;101124.22;5065665;28;20089;-65
2023/06/04 08:19:07;;;;;;;0.20;0.20;;;;;;;24.19;32.41;101132.59;5047861;28;20021;-66
2023/06/04 08:21:33;;;;;;;0.10;0.10;;;;;;;24.61;32.23;101132.94;5047546;28;20049;-66
2023/06/04 08:24:00;;;;;;;0.10;0.10;;;;;;;24.82;32.09;101141.50;5065540;28;20059;-66
2023/06/04 08:26:26;;;;;;;0.10;0.10;;;;;;;24.80;31.68;101143.38;5065385;28;20113;-65
2023/06/04 08:28:52;;;;;;;0.17;0.17;;;;;;;24.61;31.01;101135.59;5065434;28;20424;-65
2023/06/04 08:31:18;;;;;;;0.20;0.20;;;;;;;24.31;31.49;101139.91;5065205;28;20137;-66
2023/06/04 08:33:46;;;;;;;0.20;0.20;;;;;;;24.62;32.03;101129.34;5065508;28;20024;-65
2023/06/04 08:36:11;;;;;;;0.20;0.20;;;;;;;25.25;31.35;101143.50;5064528;28;20028;-64
2023/06/04 08:38:36;;;;;;;0.10;0.10;;;;;;;25.19;29.88;101135.03;5065371;28;20051;-66
2023/06/04 08:41:29;;;;;;;0.30;0.30;;;;;;;25.20;28.42;101145.56;5064973;28;20067;-66
2023/06/04 08:43:57;;;;;;;0.10;0.10;;;;;;;25.43;28.85;101145.13;5059475;28;20060;-65
2023/06/04 08:46:23;;;;;;;0.10;0.10;;;;;;;25.55;28.70;101140.88;5064927;28;20043;-64
2023/06/04 08:48:49;;;;;;;1.65;0.95;;;;;;;25.77;28.08;101142.28;5064999;28;20048;-63
2023/06/04 08:51:16;;;;;;;0.30;0.30;;;;;;;25.95;27.89;101135.81;5065011;28;20280;-63
2023/06/04 08:53:42;;;;;;;0.10;0.10;;;;;;;26.27;28.58;101131.19;5065108;28;20036;-65
2023/06/04 08:56:08;;;;;;;0.10;0.10;;;;;;;26.85;27.07;101134.56;5062762;28;20090;-62
2023/06/04 08:58:36;;;;;;;0.10;0.10;;;;;;;26.75;26.94;101133.47;5065071;28;20025;-64
2023/06/04 09:01:02;;;;;;;0.28;0.28;;;;;;;26.55;26.72;101137.44;5064913;28;20021;-64
2023/06/04 09:03:32;;;;;;;0.10;0.10;;;;;;;26.73;27.06;101136.22;5063773;28;20380;-64
2023/06/04 09:05:59;;;;;;;0.10;0.10;;;;;;;27.01;26.32;101146.03;5063963;28;20116;-64
2023/06/04 09:08:26;;;;;;;0.10;0.10;;;;;;;27.16;27.24;101152.13;5064786;28;20025;-65
2023/06/04 09:10:54;;;;;;;0.10;0.10;;;;;;;27.64;26.16;101140.88;5064684;28;20497;-64
2023/06/04 09:13:22;;;;;;;0.10;0.10;;;;;;;27.46;26.12;101154.53;5064775;28;20047;-64
2023/06/04 09:16:02;;;;;;;0.45;0.45;;;;;;;27.89;25.99;101144.56;5064797;28;20021;-64
2023/06/04 09:18:28;;;;;;;0.35;0.35;;;;;;;28.04;24.71;101136.38;5064415;28;20031;-64
2023/06/04 09:21:05;;;;;;;0.10;0.10;;;;;;;28.52;25.97;101140.13;5064318;28;20084;-64
2023/06/04 09:23:31;;;;;;;0.10;0.10;;;;;;;29.09;25.26;101144.91;5064507;28;20063;-63
2023/06/04 09:26:06;;;;;;;0.10;0.10;;;;;;;29.16;24.38;101152.34;5064207;28;20116;-63
2023/06/04 09:28:32;;;;;;;0.10;0.10;;;;;;;29.27;24.68;101142.63;5046644;28;20020;-64
2023/06/04 09:30:58;;;;;;;0.10;0.10;;;;;;;28.84;24.60;101139.56;5064128;28;20025;-62
2023/06/04 09:33:24;;;;;;;0.10;0.10;;;;;;;28.52;25.18;101145.47;5064279;28;20025;-63
2023/06/04 09:35:56;;;;;;;0.10;0.10;;;;;;;28.92;25.67;101142.50;5064160;28;20028;-64
2023/06/04 09:38:22;;;;;;;0.10;0.10;;;;;;;28.83;24.23;101140.53;5062977;28;20044;-63
2023/06/04 09:40:49;;;;;;;0.10;0.10;;;;;;;27.86;23.95;101133.22;5064263;28;20043;-63
2023/06/04 09:43:25;;;;;;;0.10;0.10;;;;;;;27.34;25.06;101136.72;5064264;28;20027;-63
2023/06/04 09:45:51;;;;;;;0.10;0.10;;;;;;;27.33;25.49;101135.03;5046126;28;20017;-64
2023/06/04 09:48:23;;;;;;;0.40;0.40;;;;;;;27.21;25.30;101126.03;5064480;28;20024;-64
2023/06/04 09:50:48;;;;;;;0.10;0.10;;;;;;;27.41;24.98;101130.03;5063039;28;20029;-64
2023/06/04 09:53:20;;;;;;;0.10;0.10;;;;;;;27.56;25.11;101136.09;5063061;28;20036;-64
2023/06/04 09:55:56;;;;;;;0.10;0.10;;;;;;;27.41;24.98;101123.84;5063802;28;20039;-64
2023/06/04 09:58:24;;;;;;;0.22;0.22;;;;;;;27.55;25.84;101126.41;5063971;28;20041;-66
2023/06/04 10:00:50;;;;;;;0.10;0.10;;;;;;;28.27;24.91;101121.41;5045738;28;20029;-63
2023/06/04 10:03:17;;;;;;;0.15;0.15;;;;;;;28.41;23.62;101128.44;5063549;28;20113;-63
2023/06/04 10:05:43;;;;;;;1.23;1.23;;;;;;;28.14;23.75;101133.91;5063576;28;20060;-63
2023/06/04 10:08:10;;;;;;;0.20;0.20;;;;;;;28.00;24.54;101126.91;5063842;28;20021;-63
2023/06/04 10:10:38;;;;;;;0.10;0.10;;;;;;;28.38;24.39;101130.47;5063772;28;20039;-63
2023/06/04 10:13:08;;;;;;;0.10;0.10;;;;;;;28.33;23.88;101129.00;5063585;28;20025;-64
2023/06/04 10:15:39;;;;;;;0.50;0.50;;;;;;;28.23;24.35;101132.41;5063662;28;20108;-65
2023/06/04 10:18:06;;;;;;;0.10;0.10;;;;;;;28.92;23.65;101133.63;5063685;28;20021;-65
2023/06/04 10:20:31;;;;;;;0.10;0.10;;;;;;;28.59;23.51;101128.03;5063551;28;20031;-64
2023/06/04 10:22:58;;;;;;;0.10;0.10;;;;;;;28.24;24.60;101134.97;5063684;28;20056;-63
2023/06/04 10:25:25;;;;;;;0.10;0.10;;;;;;;28.55;24.59;101142.56;5063775;28;20021;-64
2023/06/04 10:27:52;;;;;;;0.10;0.10;;;;;;;28.76;24.62;101137.47;5063816;28;20020;-65
2023/06/04 10:30:17;;;;;;;3.63;1.05;;;;;;;29.20;24.10;101132.41;5063792;28;20424;-64
2023/06/04 10:32:43;;;;;;;0.15;0.15;;;;;;;29.12;24.13;101137.50;5063598;28;20445;-64
2023/06/04 10:35:09;;;;;;;0.10;0.10;;;;;;;29.28;24.05;101141.69;5045386;28;20021;-63
2023/06/04 10:37:34;;;;;;;0.10;0.10;;;;;;;29.74;23.12;101128.38;5063642;28;20027;-64
2023/06/04 10:39:59;;;;;;;0.10;0.10;;;;;;;29.12;23.08;101137.50;5045563;28;20021;-64
2023/06/04 10:42:25;;;;;;;0.10;0.10;;;;;;;28.60;23.68;101148.44;5045584;28;20025;-68
2023/06/04 10:44:53;;;;;;;0.10;0.10;;;;;;;28.64;24.38;101138.38;5062348;28;20485;-73
2023/06/04 10:47:26;;;;;;;0.10;0.10;;;;;;;28.99;24.54;101139.41;5045732;28;20056;-72
2023/06/04 10:49:54;;;;;;;0.10;0.10;;;;;;;28.65;22.45;101138.25;5045747;28;20053;-71
2023/06/04 10:52:21;;;;;;;0.10;0.10;;;;;;;28.16;23.56;101145.34;5063392;28;20025;-70
2023/06/04 10:54:53;;;;;;;0.15;0.15;;;;;;;27.72;24.01;101137.72;5063560;28;20021;-71
2023/06/04 10:57:19;;;;;;;0.10;0.10;;;;;;;26.89;26.03;101140.53;5063524;28;20029;-68
2023/06/04 10:59:59;;;;;;;0.20;0.20;;;;;;;26.28;26.89;101141.75;5063313;28;20078;-70
2023/06/04 11:02:25;;;;;;;11.98;1.23;;;;;;;25.77;27.76;101134.28;5063093;28;20049;-66
2023/06/04 11:05:09;;;;;;;0.10;0.10;;;;;;;25.69;28.07;101140.91;5063531;28;20084;-70
2023/06/04 11:07:47;;;;;;;0.10;0.10;;;;;;;25.57;28.33;101142.50;5063417;28;20021;-69
2023/06/04 11:10:13;;;;;;;0.10;0.10;;;;;;;25.38;29.16;101142.75;5063569;28;20079;-68
2023/06/04 11:12:47;;;;;;;0.20;0.20;;;;;;;25.21;30.13;101154.34;5063430;28;20083;-68
2023/06/04 11:15:16;;;;;;;0.10;0.10;;;;;;;24.93;30.47;101143.56;5063224;28;20060;-68
2023/06/04 11:17:52;;;;;;;0.10;0.10;;;;;;;24.48;32.92;101148.72;5063482;28;20154;-68
2023/06/04 11:20:22;;;;;;;0.55;0.55;;;;;;;23.94;34.57;101140.06;5066949;28;20032;-69
2023/06/04 11:22:52;;;;;;;0.10;0.10;;;;;;;23.61;35.36;101147.06;5048954;28;20024;-68